createdAt,value
2018-05-31T00:01:31.307Z,20.30
2018-05-31T00:03:57.643Z,20.20
2018-05-31T00:06:23.941Z,20.00
2018-05-31T00:08:50.268Z,19.90
2018-05-31T00:11:17.403Z,19.90
2018-05-31T00:13:43.708Z,19.90
2018-05-31T00:16:10.022Z,19.90
2018-05-31T00:18:36.363Z,19.80
2018-05-31T00:21:02.716Z,19.70
2018-05-31T00:23:28.991Z,19.60
2018-05-31T00:25:56.057Z,19.40
2018-05-31T00:28:22.386Z,19.40
2018-05-31T00:30:49.408Z,19.30
2018-05-31T00:33:15.721Z,19.30
2018-05-31T00:35:42.053Z,19.30
2018-05-31T00:38:08.391Z,19.20
2018-05-31T00:40:34.713Z,19.30
2018-05-31T00:43:00.971Z,19.20
2018-05-31T00:45:28.267Z,19.20
2018-05-31T00:47:54.561Z,19.20
2018-05-31T00:50:21.572Z,19.20
2018-05-31T00:52:47.862Z,19.20
2018-05-31T00:55:14.174Z,19.20
2018-05-31T00:57:41.208Z,19.10
2018-05-31T01:00:08.293Z,19.00
2018-05-31T01:02:34.593Z,19.00
2018-05-31T01:05:01.685Z,19.10
2018-05-31T01:07:27.973Z,19.10
2018-05-31T01:09:55.010Z,19.10
2018-05-31T01:12:21.279Z,19.10
2018-05-31T01:14:47.651Z,19.10
2018-05-31T01:17:13.947Z,19.00
2018-05-31T01:19:40.308Z,18.90
2018-05-31T01:22:06.595Z,18.90
2018-05-31T01:24:32.965Z,18.90
2018-05-31T01:26:59.252Z,18.80
2018-05-31T01:29:25.573Z,18.90
2018-05-31T01:31:52.622Z,18.80
2018-05-31T01:34:19.668Z,18.60
2018-05-31T01:36:46.725Z,18.60
2018-05-31T01:39:17.126Z,18.40
2018-05-31T01:41:44.214Z,18.30
2018-05-31T01:44:10.498Z,18.30
2018-05-31T01:46:36.821Z,18.30
2018-05-31T01:49:03.109Z,18.30
2018-05-31T01:51:29.421Z,18.30
2018-05-31T01:53:56.452Z,18.30
2018-05-31T01:56:22.729Z,18.30
2018-05-31T01:58:49.068Z,18.30
2018-05-31T02:01:15.400Z,18.30
2018-05-31T02:03:41.776Z,18.30
2018-05-31T02:06:08.073Z,18.20
2018-05-31T02:08:34.552Z,18.10
2018-05-31T02:11:00.898Z,18.10
2018-05-31T02:13:28.004Z,18.20
2018-05-31T02:15:55.040Z,18.20
2018-05-31T02:18:21.393Z,18.10
2018-05-31T02:20:49.201Z,18.10
2018-05-31T02:23:15.489Z,18.10
2018-05-31T02:25:41.783Z,18.00
2018-05-31T02:28:08.079Z,18.10
2018-05-31T02:30:35.138Z,18.10
2018-05-31T02:33:01.454Z,18.00
2018-05-31T02:35:28.512Z,17.90
2018-05-31T02:37:54.785Z,17.80
2018-05-31T02:40:21.135Z,17.80
2018-05-31T02:42:47.745Z,17.80
2018-05-31T02:45:14.189Z,17.80
2018-05-31T02:47:40.551Z,17.80
2018-05-31T02:50:07.654Z,17.70
2018-05-31T02:52:33.984Z,17.60
2018-05-31T02:55:00.339Z,17.80
2018-05-31T02:57:26.646Z,17.80
2018-05-31T02:59:52.954Z,17.80
2018-05-31T03:02:19.213Z,17.80
2018-05-31T03:04:45.529Z,17.80
2018-05-31T03:07:11.816Z,17.70
2018-05-31T03:09:38.125Z,17.80
2018-05-31T03:12:04.449Z,17.80
2018-05-31T03:14:31.043Z,17.80
2018-05-31T03:16:58.095Z,17.80
2018-05-31T03:19:24.679Z,17.80
2018-05-31T03:21:51.115Z,17.90
2018-05-31T03:24:17.429Z,17.90
2018-05-31T03:26:52.666Z,18.00
2018-05-31T03:29:19.041Z,18.00
2018-05-31T03:31:46.078Z,17.80
2018-05-31T03:34:12.356Z,17.80
2018-05-31T03:36:38.711Z,17.80
2018-05-31T03:39:05.059Z,17.80
2018-05-31T03:41:31.399Z,17.80
2018-05-31T03:43:57.728Z,17.80
2018-05-31T03:46:24.094Z,17.80
2018-05-31T03:48:50.396Z,17.90
2018-05-31T03:51:16.695Z,18.10
2018-05-31T03:53:43.019Z,18.20
2018-05-31T03:56:09.375Z,18.20
2018-05-31T03:58:35.675Z,18.40
2018-05-31T04:01:02.006Z,18.40
2018-05-31T04:03:28.262Z,18.50
2018-05-31T04:05:54.567Z,18.60
2018-05-31T04:08:20.872Z,18.70
2018-05-31T04:10:47.977Z,18.60
2018-05-31T04:13:14.319Z,18.50
2018-05-31T04:15:40.603Z,18.70
2018-05-31T04:18:06.946Z,18.70
2018-05-31T04:20:33.298Z,19.00
2018-05-31T04:22:59.675Z,18.90
2018-05-31T04:25:26.755Z,19.10
2018-05-31T04:27:53.094Z,19.10
2018-05-31T04:30:19.411Z,19.40
2018-05-31T04:32:45.714Z,19.50
2018-05-31T04:35:12.744Z,19.70
2018-05-31T04:37:39.041Z,19.70
2018-05-31T04:40:05.326Z,20.00
2018-05-31T04:42:32.418Z,20.10
2018-05-31T04:44:59.489Z,20.20
2018-05-31T04:47:25.809Z,20.10
2018-05-31T04:49:52.139Z,20.30
2018-05-31T04:52:18.472Z,20.50
2018-05-31T04:54:44.800Z,20.50
2018-05-31T04:57:11.118Z,20.60
2018-05-31T04:59:37.369Z,20.80
2018-05-31T05:02:03.681Z,20.90
2018-05-31T05:04:30.011Z,21.10
2018-05-31T05:06:56.336Z,21.30
2018-05-31T05:09:22.684Z,21.30
2018-05-31T05:11:49.012Z,21.40
2018-05-31T05:14:15.285Z,21.60
2018-05-31T05:16:42.349Z,21.80
2018-05-31T05:19:08.642Z,21.80
2018-05-31T05:21:34.974Z,22.10
2018-05-31T05:24:01.266Z,22.30
2018-05-31T05:26:27.609Z,22.40
2018-05-31T05:28:53.897Z,22.50
2018-05-31T05:31:20.950Z,22.10
2018-05-31T05:33:47.959Z,22.10
2018-05-31T05:36:14.259Z,22.10
2018-05-31T05:38:40.539Z,22.40
2018-05-31T05:41:07.597Z,22.50
2018-05-31T05:43:34.655Z,22.90
2018-05-31T05:46:01.703Z,23.20
2018-05-31T05:48:28.028Z,23.20
2018-05-31T05:50:55.110Z,23.40
2018-05-31T05:53:21.410Z,23.40
2018-05-31T05:55:48.440Z,23.70
2018-05-31T05:58:14.729Z,23.60
2018-05-31T06:00:41.017Z,23.30
2018-05-31T06:03:08.054Z,23.60
2018-05-31T06:05:35.075Z,23.40
2018-05-31T06:08:01.407Z,23.30
2018-05-31T06:10:27.682Z,23.40
2018-05-31T06:12:53.977Z,23.60
2018-05-31T06:15:20.309Z,24.00
2018-05-31T06:17:46.657Z,24.40
2018-05-31T06:20:13.744Z,25.00
2018-05-31T06:22:40.098Z,25.00
2018-05-31T06:25:06.519Z,24.60
2018-05-31T06:27:32.866Z,24.50
2018-05-31T06:29:59.234Z,24.50
2018-05-31T06:32:25.566Z,24.70
2018-05-31T06:34:52.571Z,25.50
2018-05-31T06:37:18.903Z,25.40
2018-05-31T06:39:45.195Z,25.50
2018-05-31T06:42:12.267Z,25.80
2018-05-31T06:44:38.569Z,25.70
2018-05-31T06:47:05.633Z,25.90
2018-05-31T06:49:31.922Z,25.90
2018-05-31T06:51:58.280Z,26.20
2018-05-31T06:54:25.358Z,26.50
2018-05-31T06:56:51.633Z,26.50
2018-05-31T06:59:17.919Z,26.60
2018-05-31T07:01:44.204Z,26.50
2018-05-31T07:04:10.483Z,26.60
2018-05-31T07:06:36.798Z,26.60
2018-05-31T07:09:03.086Z,26.40
2018-05-31T07:11:29.365Z,26.30
2018-05-31T07:13:55.663Z,26.20
2018-05-31T07:16:22.685Z,26.50
2018-05-31T07:18:48.929Z,26.40
2018-05-31T07:21:15.255Z,26.30
2018-05-31T07:23:41.571Z,26.00
2018-05-31T07:26:07.842Z,26.30
2018-05-31T07:28:34.204Z,26.30
2018-05-31T07:31:00.549Z,26.00
2018-05-31T07:33:26.861Z,26.40
2018-05-31T07:35:53.166Z,26.50
2018-05-31T07:38:20.185Z,26.30
2018-05-31T07:40:47.498Z,26.30
2018-05-31T07:43:13.822Z,26.40
2018-05-31T07:45:40.112Z,26.70
2018-05-31T07:48:07.200Z,26.60
2018-05-31T07:50:33.545Z,26.60
2018-05-31T07:52:59.854Z,26.70
2018-05-31T07:55:27.143Z,27.20
2018-05-31T07:57:53.484Z,27.20
2018-05-31T08:00:19.786Z,27.20
2018-05-31T08:02:46.102Z,27.40
2018-05-31T08:05:13.007Z,27.80
2018-05-31T08:07:39.427Z,27.90
2018-05-31T08:10:05.732Z,27.80
2018-05-31T08:12:32.055Z,27.70
2018-05-31T08:14:58.333Z,27.70
2018-05-31T08:17:24.623Z,27.20
2018-05-31T08:19:50.945Z,27.60
2018-05-31T08:22:17.305Z,27.80
2018-05-31T08:24:43.661Z,28.10
2018-05-31T08:27:09.986Z,27.70
2018-05-31T08:29:36.369Z,27.80
2018-05-31T08:32:02.647Z,27.70
2018-05-31T08:34:28.910Z,27.40
2018-05-31T08:36:55.953Z,28.00
2018-05-31T08:39:22.960Z,28.10
2018-05-31T08:41:49.252Z,28.10
2018-05-31T08:44:15.570Z,28.30
2018-05-31T08:46:41.849Z,27.80
2018-05-31T08:49:08.156Z,27.90
2018-05-31T08:51:34.482Z,28.20
2018-05-31T08:54:00.795Z,28.50
2018-05-31T08:56:27.098Z,28.80
2018-05-31T08:58:53.448Z,28.80
2018-05-31T09:01:20.513Z,28.50
2018-05-31T09:03:46.862Z,28.50
2018-05-31T09:06:13.150Z,28.80
2018-05-31T09:08:40.211Z,29.00
2018-05-31T09:11:08.237Z,28.50
2018-05-31T09:13:34.498Z,28.50
2018-05-31T09:16:01.536Z,29.00
2018-05-31T09:18:28.443Z,29.00
2018-05-31T09:20:54.749Z,29.00
2018-05-31T09:23:21.057Z,29.20
2018-05-31T09:25:48.116Z,29.30
2018-05-31T09:28:14.429Z,29.30
2018-05-31T09:30:41.495Z,28.50
2018-05-31T09:33:09.347Z,28.60
2018-05-31T09:35:36.430Z,28.50
2018-05-31T09:38:02.750Z,28.50
2018-05-31T09:40:29.070Z,28.80
2018-05-31T09:42:56.105Z,28.90
2018-05-31T09:45:22.374Z,28.80
2018-05-31T09:47:48.675Z,29.00
2018-05-31T09:50:15.825Z,29.40
2018-05-31T09:52:42.900Z,29.50
2018-05-31T09:55:09.193Z,29.50
2018-05-31T09:57:35.473Z,29.50
2018-05-31T10:00:01.814Z,29.50
2018-05-31T10:02:28.108Z,29.50
2018-05-31T10:04:54.430Z,29.60
2018-05-31T10:07:21.483Z,29.70
2018-05-31T10:09:48.563Z,29.80
2018-05-31T10:12:14.898Z,29.80
2018-05-31T10:14:41.207Z,29.80
2018-05-31T10:17:07.498Z,29.90
2018-05-31T10:19:33.824Z,29.60
2018-05-31T10:22:00.168Z,29.70
2018-05-31T10:24:26.457Z,29.70
2018-05-31T10:26:52.805Z,29.90
2018-05-31T10:29:19.635Z,29.90
2018-05-31T10:31:45.943Z,29.80
2018-05-31T10:34:12.278Z,29.80
2018-05-31T10:36:38.610Z,29.80
2018-05-31T10:39:04.905Z,29.80
2018-05-31T10:41:32.018Z,29.80
2018-05-31T10:43:58.300Z,29.80
2018-05-31T10:46:25.160Z,29.70
2018-05-31T10:48:51.463Z,29.70
2018-05-31T10:51:18.857Z,30.20
2018-05-31T10:53:45.164Z,30.20
2018-05-31T10:56:12.226Z,30.20
2018-05-31T10:58:38.512Z,30.10
2018-05-31T11:01:04.903Z,30.10
2018-05-31T11:03:31.198Z,29.90
2018-05-31T11:05:58.264Z,30.40
2018-05-31T11:08:24.535Z,30.30
2018-05-31T11:10:52.289Z,30.50
2018-05-31T11:13:18.583Z,30.50
2018-05-31T11:15:44.934Z,30.70
2018-05-31T11:18:11.220Z,30.80
2018-05-31T11:20:38.463Z,30.80
2018-05-31T11:23:04.822Z,30.80
2018-05-31T11:25:31.194Z,30.80
2018-05-31T11:27:57.509Z,30.70
2018-05-31T11:30:23.837Z,30.90
2018-05-31T11:32:50.167Z,31.10
2018-05-31T11:35:16.460Z,31.00
2018-05-31T11:37:44.109Z,31.30
2018-05-31T11:40:10.479Z,31.30
2018-05-31T11:42:36.850Z,31.40
2018-05-31T11:45:03.155Z,31.50
2018-05-31T11:47:29.476Z,31.30
2018-05-31T11:49:55.805Z,31.60
2018-05-31T11:52:22.183Z,32.30
2018-05-31T11:54:48.482Z,33.00
2018-05-31T11:57:14.783Z,33.80
2018-05-31T11:59:41.846Z,35.90
2018-05-31T12:02:08.119Z,35.80
2018-05-31T12:04:34.459Z,36.70
2018-05-31T12:07:00.787Z,38.00
2018-05-31T12:09:27.132Z,38.80
2018-05-31T12:11:54.231Z,40.00
2018-05-31T12:14:20.556Z,40.60
2018-05-31T12:16:46.874Z,41.00
2018-05-31T12:19:13.935Z,40.60
2018-05-31T12:21:40.220Z,40.70
2018-05-31T12:24:06.493Z,41.10
2018-05-31T12:26:32.783Z,40.90
2018-05-31T12:28:59.056Z,42.50
2018-05-31T12:31:25.322Z,44.80
2018-05-31T12:33:51.584Z,47.10
2018-05-31T12:36:18.626Z,46.80
2018-05-31T12:38:44.972Z,46.80
2018-05-31T12:41:11.999Z,45.80
2018-05-31T12:43:38.319Z,45.70
2018-05-31T12:46:04.617Z,45.10
2018-05-31T12:48:30.912Z,44.70
2018-05-31T12:50:57.972Z,47.10
2018-05-31T12:53:24.276Z,47.10
2018-05-31T12:55:50.629Z,47.40
2018-05-31T12:58:16.899Z,47.90
2018-05-31T13:00:43.206Z,48.50
2018-05-31T13:03:09.543Z,48.60
2018-05-31T13:05:35.893Z,46.90
2018-05-31T13:08:02.176Z,48.00
2018-05-31T13:10:29.167Z,46.70
2018-05-31T13:12:55.493Z,46.70
2018-05-31T13:15:21.788Z,47.30
2018-05-31T13:17:48.827Z,48.00
2018-05-31T13:20:15.885Z,48.00
2018-05-31T13:22:42.960Z,48.30
2018-05-31T13:25:09.294Z,48.20
2018-05-31T13:27:35.614Z,49.20
2018-05-31T13:30:01.881Z,47.50
2018-05-31T13:32:28.205Z,47.60
2018-05-31T13:34:54.505Z,48.80
2018-05-31T13:37:20.800Z,48.60
2018-05-31T13:39:47.066Z,48.40
2018-05-31T13:42:13.418Z,47.80
2018-05-31T13:44:39.673Z,49.20
2018-05-31T13:47:05.960Z,48.30
2018-05-31T13:49:32.257Z,49.40
2018-05-31T13:51:59.331Z,49.80
2018-05-31T13:54:25.678Z,49.80
2018-05-31T13:56:52.087Z,49.10
2018-05-31T13:59:19.123Z,47.80
2018-05-31T14:01:46.192Z,47.80
2018-05-31T14:04:12.543Z,47.70
2018-05-31T14:06:38.893Z,49.50
2018-05-31T14:09:05.266Z,49.70
2018-05-31T14:11:32.356Z,47.10
2018-05-31T14:13:58.645Z,47.10
2018-05-31T14:16:25.665Z,48.40
2018-05-31T14:18:51.947Z,48.30
2018-05-31T14:21:18.614Z,50.00
2018-05-31T14:23:51.834Z,50.00
2018-05-31T14:26:18.130Z,50.20
2018-05-31T14:28:44.455Z,49.60
2018-05-31T14:31:10.725Z,49.40
2018-05-31T14:33:37.048Z,49.70
2018-05-31T14:36:03.327Z,47.70
2018-05-31T14:38:29.637Z,48.20
2018-05-31T14:40:56.683Z,46.40
2018-05-31T14:43:23.767Z,43.30
2018-05-31T14:45:50.101Z,43.20
2018-05-31T14:48:16.410Z,43.80
2018-05-31T14:50:43.461Z,48.90
2018-05-31T14:53:09.782Z,48.80
2018-05-31T14:55:36.805Z,48.10
2018-05-31T14:58:03.125Z,48.10
2018-05-31T15:00:29.447Z,46.50
2018-05-31T15:02:55.749Z,44.90
2018-05-31T15:05:22.055Z,46.60
2018-05-31T15:07:49.092Z,48.30
2018-05-31T15:10:16.118Z,48.10
2018-05-31T15:12:42.418Z,48.00
2018-05-31T15:15:08.733Z,48.10
2018-05-31T15:17:35.079Z,47.30
2018-05-31T15:20:01.411Z,49.90
2018-05-31T15:22:27.829Z,48.00
2018-05-31T15:24:54.172Z,47.20
2018-05-31T15:27:20.433Z,49.50
2018-05-31T15:29:46.763Z,51.00
2018-05-31T15:32:13.099Z,50.50
2018-05-31T15:34:39.396Z,51.50
2018-05-31T15:37:05.722Z,49.20
2018-05-31T15:39:32.035Z,49.50
2018-05-31T15:41:59.082Z,49.40
2018-05-31T15:44:26.178Z,50.30
2018-05-31T15:46:52.485Z,50.30
2018-05-31T15:49:18.798Z,49.70
2018-05-31T15:51:45.093Z,49.50
2018-05-31T15:54:11.354Z,46.60
2018-05-31T15:56:37.912Z,45.30
2018-05-31T15:59:04.239Z,43.60
2018-05-31T16:01:30.551Z,44.00
2018-05-31T16:03:57.658Z,43.10
2018-05-31T16:06:23.986Z,43.10
2018-05-31T16:08:50.332Z,41.90
2018-05-31T16:11:16.630Z,41.30
2018-05-31T16:13:42.988Z,40.00
2018-05-31T16:16:09.308Z,39.90
2018-05-31T16:18:35.622Z,39.40
2018-05-31T16:21:01.919Z,38.80
2018-05-31T16:23:29.009Z,37.40
2018-05-31T16:25:55.302Z,37.30
2018-05-31T16:28:21.608Z,37.10
2018-05-31T16:30:47.834Z,36.80
2018-05-31T16:33:14.133Z,36.10
2018-05-31T16:35:40.430Z,35.80
2018-05-31T16:38:06.731Z,35.40
2018-05-31T16:40:33.782Z,34.70
2018-05-31T16:43:00.870Z,34.30
2018-05-31T16:45:27.175Z,34.30
2018-05-31T16:47:54.226Z,34.00
2018-05-31T16:50:20.495Z,33.90
2018-05-31T16:52:46.761Z,33.60
2018-05-31T16:55:13.055Z,33.30
2018-05-31T16:57:39.334Z,33.00
2018-05-31T17:00:06.378Z,32.60
2018-05-31T17:02:33.429Z,32.60
2018-05-31T17:05:00.502Z,32.50
2018-05-31T17:07:26.779Z,32.50
2018-05-31T17:09:53.057Z,32.30
2018-05-31T17:12:19.411Z,32.30
2018-05-31T17:14:45.710Z,32.50
2018-05-31T17:17:12.797Z,32.30
2018-05-31T17:19:39.081Z,32.30
2018-05-31T17:22:06.158Z,31.90
2018-05-31T17:24:32.480Z,31.90
2018-05-31T17:26:58.735Z,31.70
2018-05-31T17:29:25.081Z,31.40
2018-05-31T17:31:51.401Z,31.30
2018-05-31T17:34:17.700Z,31.20
2018-05-31T17:36:44.006Z,31.20
2018-05-31T17:39:10.313Z,31.10
2018-05-31T17:41:36.670Z,31.00
2018-05-31T17:44:03.744Z,30.70
2018-05-31T17:46:30.056Z,30.70
2018-05-31T17:48:57.157Z,30.40
2018-05-31T17:51:23.452Z,30.40
2018-05-31T17:53:56.828Z,30.20
2018-05-31T17:56:23.879Z,29.90
2018-05-31T17:58:50.965Z,29.70
2018-05-31T18:01:17.260Z,29.60
2018-05-31T18:03:43.556Z,29.50
2018-05-31T18:06:09.840Z,29.50
2018-05-31T18:08:36.444Z,29.30
2018-05-31T18:11:02.718Z,29.20
2018-05-31T18:13:29.024Z,29.20
2018-05-31T18:15:56.063Z,28.80
2018-05-31T18:18:23.183Z,28.70
2018-05-31T18:20:49.566Z,28.70
2018-05-31T18:23:15.839Z,28.70
2018-05-31T18:25:43.192Z,28.60
2018-05-31T18:28:09.487Z,28.50
2018-05-31T18:30:35.849Z,28.40
2018-05-31T18:33:02.229Z,28.20
2018-05-31T18:35:28.619Z,28.10
2018-05-31T18:37:54.930Z,28.00
2018-05-31T18:40:21.268Z,28.00
2018-05-31T18:42:47.528Z,28.00
2018-05-31T18:45:13.852Z,27.90
2018-05-31T18:47:40.340Z,27.80
2018-05-31T18:50:06.683Z,27.80
2018-05-31T18:52:33.044Z,27.70
2018-05-31T18:54:59.415Z,27.70
2018-05-31T18:57:26.473Z,27.60
2018-05-31T18:59:52.754Z,27.60
2018-05-31T19:02:19.196Z,27.40
2018-05-31T19:04:45.542Z,27.50
2018-05-31T19:07:12.203Z,27.50
2018-05-31T19:09:39.269Z,27.30
2018-05-31T19:12:05.634Z,27.30
2018-05-31T19:14:31.946Z,27.20
2018-05-31T19:16:58.236Z,27.10
2018-05-31T19:19:31.467Z,26.70
2018-05-31T19:21:57.813Z,26.70
2018-05-31T19:24:30.241Z,26.50
2018-05-31T19:26:57.353Z,26.20
2018-05-31T19:29:23.654Z,26.10
2018-05-31T19:31:50.001Z,26.00
2018-05-31T19:34:16.315Z,26.00
2018-05-31T19:36:48.772Z,25.90
2018-05-31T19:39:15.825Z,26.00
2018-05-31T19:41:42.117Z,25.90
2018-05-31T19:44:14.581Z,25.80
2018-05-31T19:46:40.936Z,25.80
2018-05-31T19:49:07.377Z,25.70
2018-05-31T19:51:40.630Z,25.60
2018-05-31T19:54:06.933Z,25.60
2018-05-31T19:56:33.233Z,25.40
2018-05-31T19:59:06.484Z,25.30
2018-05-31T20:01:38.910Z,25.30
2018-05-31T20:04:06.009Z,25.10
2018-05-31T20:06:32.347Z,25.00
2018-05-31T20:08:58.649Z,25.00
2018-05-31T20:11:25.010Z,25.00
2018-05-31T20:13:51.308Z,24.90
2018-05-31T20:16:17.575Z,24.90
2018-05-31T20:18:43.923Z,24.90
2018-05-31T20:21:10.200Z,24.90
2018-05-31T20:23:36.552Z,24.90
2018-05-31T20:26:02.975Z,24.80
2018-05-31T20:28:29.322Z,24.80
2018-05-31T20:30:56.492Z,24.80
2018-05-31T20:33:22.783Z,24.70
2018-05-31T20:35:49.135Z,24.60
2018-05-31T20:38:15.442Z,24.50
2018-05-31T20:40:41.871Z,24.40
2018-05-31T20:43:08.188Z,24.30
2018-05-31T20:45:34.471Z,24.20
2018-05-31T20:48:00.789Z,24.00
2018-05-31T20:50:27.093Z,23.90
2018-05-31T20:52:53.371Z,23.80
2018-05-31T20:55:19.650Z,23.80
2018-05-31T20:57:45.906Z,23.80
2018-05-31T21:00:12.211Z,23.70
2018-05-31T21:02:38.505Z,23.70
2018-05-31T21:05:06.650Z,23.60
2018-05-31T21:07:32.982Z,23.60
2018-05-31T21:09:59.306Z,23.60
2018-05-31T21:12:25.707Z,23.40
2018-05-31T21:14:52.007Z,23.50
2018-05-31T21:17:19.030Z,23.50
2018-05-31T21:19:45.334Z,23.50
2018-05-31T21:22:11.573Z,23.50
2018-05-31T21:24:37.920Z,23.60
2018-05-31T21:27:04.217Z,23.70
2018-05-31T21:29:30.505Z,23.70
2018-05-31T21:31:57.570Z,23.70
2018-05-31T21:34:23.851Z,23.70
2018-05-31T21:36:50.137Z,23.60
2018-05-31T21:39:16.703Z,23.70
2018-05-31T21:41:42.925Z,23.70
2018-05-31T21:44:09.207Z,23.60
2018-05-31T21:46:35.506Z,23.60
2018-05-31T21:49:01.810Z,23.50
2018-05-31T21:51:28.121Z,23.50
2018-05-31T21:53:54.376Z,23.50
2018-05-31T21:56:20.699Z,23.40
2018-05-31T21:58:46.982Z,23.20
2018-05-31T22:01:13.294Z,23.30
2018-05-31T22:03:39.583Z,23.20
2018-05-31T22:06:05.894Z,23.10
2018-05-31T22:08:32.940Z,23.10
2018-05-31T22:11:00.000Z,23.20
2018-05-31T22:13:27.250Z,23.20
2018-05-31T22:15:53.912Z,23.10
2018-05-31T22:18:20.443Z,23.10
2018-05-31T22:20:46.900Z,23.20
2018-05-31T22:23:13.343Z,23.20
2018-05-31T22:25:40.597Z,23.00
2018-05-31T22:28:07.066Z,23.00
2018-05-31T22:30:34.252Z,22.70
2018-05-31T22:33:00.729Z,22.60
2018-05-31T22:35:27.102Z,22.50
2018-05-31T22:37:53.666Z,22.40
2018-05-31T22:40:20.253Z,22.40
2018-05-31T22:42:46.713Z,22.40
2018-05-31T22:45:13.386Z,22.30
2018-05-31T22:47:39.658Z,22.30
2018-05-31T22:50:07.023Z,22.10
2018-05-31T22:52:34.085Z,22.00
2018-05-31T22:55:00.473Z,21.90
2018-05-31T22:57:26.905Z,21.80
2018-05-31T22:59:54.712Z,21.70
2018-05-31T23:02:21.803Z,21.70
2018-05-31T23:04:48.103Z,21.70
2018-05-31T23:07:14.383Z,21.70
2018-05-31T23:09:40.684Z,21.70
2018-05-31T23:12:06.970Z,21.70
2018-05-31T23:14:34.018Z,21.70
2018-05-31T23:17:01.066Z,21.70
2018-05-31T23:19:28.081Z,21.70
2018-05-31T23:21:54.343Z,21.60
2018-05-31T23:24:21.368Z,21.60
2018-05-31T23:26:47.723Z,21.60
2018-05-31T23:29:14.768Z,21.60
2018-05-31T23:31:41.816Z,21.50
2018-05-31T23:34:08.814Z,21.50
2018-05-31T23:36:35.397Z,21.40
2018-05-31T23:39:02.457Z,21.30
2018-05-31T23:41:29.467Z,21.30
2018-05-31T23:43:55.830Z,21.30
2018-05-31T23:46:22.902Z,21.20
2018-05-31T23:48:49.180Z,21.20
2018-05-31T23:51:15.457Z,21.20
2018-05-31T23:53:41.741Z,21.20
2018-05-31T23:56:08.041Z,21.20
2018-05-31T23:58:34.351Z,21.20
